sensor_id;sensor_type;location;lat;lon;timestamp;P1;durP1;ratioP1;P2;durP2;ratioP2
1224;SDS011;602;48.000;7.840;2023-09-12T00:00:41;5.80;;;5.30;;
1224;SDS011;602;48.000;7.840;2023-09-12T00:03:12;4.80;;;4.40;;
1224;SDS011;602;48.000;7.840;2023-09-12T00:05:39;5.23;;;4.00;;
1224;SDS011;602;48.000;7.840;2023-09-12T00:08:10;6.23;;;4.60;;
1224;SDS011;602;48.000;7.840;2023-09-12T00:10:37;5.90;;;4.77;;
1224;SDS011;602;48.000;7.840;2023-09-12T00:13:08;4.90;;;4.40;;
1224;SDS011;602;48.000;7.840;2023-09-12T00:15:38;5.60;;;4.63;;
1224;SDS011;602;48.000;7.840;2023-09-12T00:18:06;5.47;;;4.97;;
1224;SDS011;602;48.000;7.840;2023-09-12T00:20:39;5.10;;;4.67;;
1224;SDS011;602;48.000;7.840;2023-09-12T00:23:06;4.93;;;4.50;;
1224;SDS011;602;48.000;7.840;2023-09-12T00:25:33;4.53;;;4.13;;
1224;SDS011;602;48.000;7.840;2023-09-12T00:28:00;6.77;;;6.07;;
1224;SDS011;602;48.000;7.840;2023-09-12T00:30:26;5.87;;;5.33;;
1224;SDS011;602;48.000;7.840;2023-09-12T00:32:55;5.97;;;5.30;;
1224;SDS011;602;48.000;7.840;2023-09-12T00:35:21;5.73;;;5.20;;
1224;SDS011;602;48.000;7.840;2023-09-12T00:37:48;5.13;;;4.23;;
1224;SDS011;602;48.000;7.840;2023-09-12T00:40:20;5.37;;;4.63;;
1224;SDS011;602;48.000;7.840;2023-09-12T00:42:49;7.67;;;5.40;;
1224;SDS011;602;48.000;7.840;2023-09-12T00:45:17;7.03;;;5.40;;
1224;SDS011;602;48.000;7.840;2023-09-12T00:47:47;5.63;;;4.50;;
1224;SDS011;602;48.000;7.840;2023-09-12T00:50:16;5.53;;;4.70;;
1224;SDS011;602;48.000;7.840;2023-09-12T00:52:45;8.07;;;5.13;;
1224;SDS011;602;48.000;7.840;2023-09-12T00:55:12;5.03;;;4.50;;
1224;SDS011;602;48.000;7.840;2023-09-12T00:57:39;5.60;;;4.73;;
1224;SDS011;602;48.000;7.840;2023-09-12T01:00:07;6.63;;;4.77;;
1224;SDS011;602;48.000;7.840;2023-09-12T01:02:39;7.30;;;5.60;;
1224;SDS011;602;48.000;7.840;2023-09-12T01:05:07;6.50;;;4.93;;
1224;SDS011;602;48.000;7.840;2023-09-12T01:07:36;5.83;;;4.67;;
1224;SDS011;602;48.000;7.840;2023-09-12T01:10:04;5.53;;;5.07;;
1224;SDS011;602;48.000;7.840;2023-09-12T01:12:32;5.30;;;4.70;;
1224;SDS011;602;48.000;7.840;2023-09-12T01:14:59;6.70;;;5.20;;
1224;SDS011;602;48.000;7.840;2023-09-12T01:17:26;5.70;;;5.10;;
1224;SDS011;602;48.000;7.840;2023-09-12T01:19:53;4.43;;;4.03;;
1224;SDS011;602;48.000;7.840;2023-09-12T01:22:27;6.43;;;5.10;;
1224;SDS011;602;48.000;7.840;2023-09-12T01:25:08;5.83;;;5.23;;
1224;SDS011;602;48.000;7.840;2023-09-12T01:27:48;5.40;;;4.90;;
1224;SDS011;602;48.000;7.840;2023-09-12T01:30:17;5.13;;;4.63;;
1224;SDS011;602;48.000;7.840;2023-09-12T01:32:46;5.83;;;5.30;;
1224;SDS011;602;48.000;7.840;2023-09-12T01:35:14;5.70;;;5.20;;
1224;SDS011;602;48.000;7.840;2023-09-12T01:37:41;5.67;;;5.17;;
1224;SDS011;602;48.000;7.840;2023-09-12T01:40:08;5.67;;;5.17;;
1224;SDS011;602;48.000;7.840;2023-09-12T01:42:37;5.93;;;5.43;;
1224;SDS011;602;48.000;7.840;2023-09-12T01:45:08;6.17;;;5.00;;
1224;SDS011;602;48.000;7.840;2023-09-12T01:47:36;8.03;;;5.70;;
1224;SDS011;602;48.000;7.840;2023-09-12T01:50:05;5.43;;;4.90;;
1224;SDS011;602;48.000;7.840;2023-09-12T01:52:33;5.90;;;5.30;;
1224;SDS011;602;48.000;7.840;2023-09-12T01:55:01;7.30;;;5.20;;
1224;SDS011;602;48.000;7.840;2023-09-12T01:57:29;5.33;;;4.73;;
1224;SDS011;602;48.000;7.840;2023-09-12T01:59:57;5.23;;;4.83;;
1224;SDS011;602;48.000;7.840;2023-09-12T02:02:26;6.20;;;5.20;;
1224;SDS011;602;48.000;7.840;2023-09-12T02:04:54;6.83;;;5.80;;
1224;SDS011;602;48.000;7.840;2023-09-12T02:07:28;5.23;;;4.73;;
1224;SDS011;602;48.000;7.840;2023-09-12T02:09:59;5.43;;;4.93;;
1224;SDS011;602;48.000;7.840;2023-09-12T02:12:26;6.17;;;5.57;;
1224;SDS011;602;48.000;7.840;2023-09-12T02:14:53;6.20;;;5.53;;
1224;SDS011;602;48.000;7.840;2023-09-12T02:17:20;6.57;;;5.80;;
1224;SDS011;602;48.000;7.840;2023-09-12T02:19:48;5.67;;;5.17;;
1224;SDS011;602;48.000;7.840;2023-09-12T02:22:15;5.93;;;5.37;;
1224;SDS011;602;48.000;7.840;2023-09-12T02:24:42;6.60;;;5.87;;
1224;SDS011;602;48.000;7.840;2023-09-12T02:27:09;6.90;;;6.20;;
1224;SDS011;602;48.000;7.840;2023-09-12T02:29:36;6.67;;;5.20;;
1224;SDS011;602;48.000;7.840;2023-09-12T02:32:04;6.13;;;5.53;;
1224;SDS011;602;48.000;7.840;2023-09-12T02:34:31;5.60;;;5.10;;
1224;SDS011;602;48.000;7.840;2023-09-12T02:37:00;6.33;;;5.70;;
1224;SDS011;602;48.000;7.840;2023-09-12T02:39:26;6.13;;;5.53;;
1224;SDS011;602;48.000;7.840;2023-09-12T02:41:53;8.37;;;6.20;;
1224;SDS011;602;48.000;7.840;2023-09-12T02:44:20;4.33;;;3.63;;
1224;SDS011;602;48.000;7.840;2023-09-12T02:46:47;5.43;;;4.93;;
1224;SDS011;602;48.000;7.840;2023-09-12T02:49:14;6.50;;;5.90;;
1224;SDS011;602;48.000;7.840;2023-09-12T02:51:41;5.90;;;5.40;;
1224;SDS011;602;48.000;7.840;2023-09-12T02:54:09;7.53;;;6.30;;
1224;SDS011;602;48.000;7.840;2023-09-12T02:56:36;5.47;;;4.97;;
1224;SDS011;602;48.000;7.840;2023-09-12T02:59:03;5.27;;;4.77;;
1224;SDS011;602;48.000;7.840;2023-09-12T03:01:30;5.90;;;5.40;;
1224;SDS011;602;48.000;7.840;2023-09-12T03:03:57;5.60;;;5.10;;
1224;SDS011;602;48.000;7.840;2023-09-12T03:06:24;6.67;;;6.07;;
1224;SDS011;602;48.000;7.840;2023-09-12T03:08:51;5.60;;;5.10;;
1224;SDS011;602;48.000;7.840;2023-09-12T03:11:19;6.37;;;5.77;;
1224;SDS011;602;48.000;7.840;2023-09-12T03:13:46;6.63;;;5.93;;
1224;SDS011;602;48.000;7.840;2023-09-12T03:16:14;6.37;;;5.57;;
1224;SDS011;602;48.000;7.840;2023-09-12T03:18:41;5.53;;;5.03;;
1224;SDS011;602;48.000;7.840;2023-09-12T03:21:07;10.80;;;5.87;;
1224;SDS011;602;48.000;7.840;2023-09-12T03:23:34;6.23;;;5.63;;
1224;SDS011;602;48.000;7.840;2023-09-12T03:26:01;8.07;;;5.57;;
1224;SDS011;602;48.000;7.840;2023-09-12T03:28:30;6.53;;;5.93;;
1224;SDS011;602;48.000;7.840;2023-09-12T03:31:02;6.57;;;5.97;;
1224;SDS011;602;48.000;7.840;2023-09-12T03:33:33;6.70;;;6.00;;
1224;SDS011;602;48.000;7.840;2023-09-12T03:36:00;7.03;;;6.27;;
1224;SDS011;602;48.000;7.840;2023-09-12T03:38:26;5.77;;;5.13;;
1224;SDS011;602;48.000;7.840;2023-09-12T03:40:53;6.60;;;5.90;;
1224;SDS011;602;48.000;7.840;2023-09-12T03:43:20;9.03;;;5.13;;
1224;SDS011;602;48.000;7.840;2023-09-12T03:45:48;4.77;;;4.30;;
1224;SDS011;602;48.000;7.840;2023-09-12T03:48:15;9.60;;;5.37;;
1224;SDS011;602;48.000;7.840;2023-09-12T03:50:42;7.13;;;5.70;;
1224;SDS011;602;48.000;7.840;2023-09-12T03:53:09;5.80;;;5.30;;
1224;SDS011;602;48.000;7.840;2023-09-12T03:55:36;5.87;;;5.33;;
1224;SDS011;602;48.000;7.840;2023-09-12T03:58:03;8.30;;;6.60;;
1224;SDS011;602;48.000;7.840;2023-09-12T04:00:30;6.57;;;5.93;;
1224;SDS011;602;48.000;7.840;2023-09-12T04:02:58;6.67;;;5.60;;
1224;SDS011;602;48.000;7.840;2023-09-12T04:05:25;6.73;;;6.10;;
1224;SDS011;602;48.000;7.840;2023-09-12T04:07:52;6.20;;;5.60;;
1224;SDS011;602;48.000;7.840;2023-09-12T04:10:19;7.10;;;6.40;;
1224;SDS011;602;48.000;7.840;2023-09-12T04:12:46;6.47;;;5.63;;
1224;SDS011;602;48.000;7.840;2023-09-12T04:15:13;6.00;;;5.50;;
1224;SDS011;602;48.000;7.840;2023-09-12T04:17:40;5.93;;;5.33;;
1224;SDS011;602;48.000;7.840;2023-09-12T04:20:09;6.70;;;5.10;;
1224;SDS011;602;48.000;7.840;2023-09-12T04:22:38;6.50;;;5.67;;
1224;SDS011;602;48.000;7.840;2023-09-12T04:25:06;6.07;;;5.57;;
1224;SDS011;602;48.000;7.840;2023-09-12T04:27:33;7.07;;;5.53;;
1224;SDS011;602;48.000;7.840;2023-09-12T04:30:00;6.37;;;5.53;;
1224;SDS011;602;48.000;7.840;2023-09-12T04:32:27;6.90;;;6.30;;
1224;SDS011;602;48.000;7.840;2023-09-12T04:34:54;9.20;;;6.33;;
1224;SDS011;602;48.000;7.840;2023-09-12T04:37:23;6.03;;;5.53;;
1224;SDS011;602;48.000;7.840;2023-09-12T04:39:49;9.10;;;6.63;;
1224;SDS011;602;48.000;7.840;2023-09-12T04:42:16;6.00;;;5.50;;
1224;SDS011;602;48.000;7.840;2023-09-12T04:44:43;6.23;;;5.37;;
1224;SDS011;602;48.000;7.840;2023-09-12T04:47:10;7.67;;;6.30;;
1224;SDS011;602;48.000;7.840;2023-09-12T04:49:38;6.23;;;5.47;;
1224;SDS011;602;48.000;7.840;2023-09-12T04:52:05;7.50;;;6.30;;
1224;SDS011;602;48.000;7.840;2023-09-12T04:54:33;7.17;;;6.57;;
1224;SDS011;602;48.000;7.840;2023-09-12T04:57:01;6.70;;;5.30;;
1224;SDS011;602;48.000;7.840;2023-09-12T04:59:28;6.57;;;5.77;;
1224;SDS011;602;48.000;7.840;2023-09-12T05:01:55;6.57;;;5.87;;
1224;SDS011;602;48.000;7.840;2023-09-12T05:04:22;7.17;;;6.33;;
1224;SDS011;602;48.000;7.840;2023-09-12T05:06:48;7.40;;;5.50;;
1224;SDS011;602;48.000;7.840;2023-09-12T05:09:15;7.23;;;6.00;;
1224;SDS011;602;48.000;7.840;2023-09-12T05:11:43;7.20;;;5.93;;
1224;SDS011;602;48.000;7.840;2023-09-12T05:14:10;6.23;;;5.57;;
1224;SDS011;602;48.000;7.840;2023-09-12T05:16:37;5.30;;;4.80;;
1224;SDS011;602;48.000;7.840;2023-09-12T05:19:04;6.23;;;5.63;;
1224;SDS011;602;48.000;7.840;2023-09-12T05:21:31;6.73;;;4.90;;
1224;SDS011;602;48.000;7.840;2023-09-12T05:23:58;6.43;;;5.37;;
1224;SDS011;602;48.000;7.840;2023-09-12T05:26:24;7.10;;;5.50;;
1224;SDS011;602;48.000;7.840;2023-09-12T05:28:53;6.97;;;5.90;;
1224;SDS011;602;48.000;7.840;2023-09-12T05:31:19;6.60;;;5.93;;
1224;SDS011;602;48.000;7.840;2023-09-12T05:33:46;5.60;;;5.10;;
1224;SDS011;602;48.000;7.840;2023-09-12T05:36:14;5.83;;;4.67;;
1224;SDS011;602;48.000;7.840;2023-09-12T05:38:40;5.83;;;5.30;;
1224;SDS011;602;48.000;7.840;2023-09-12T05:41:07;5.77;;;5.23;;
1224;SDS011;602;48.000;7.840;2023-09-12T05:43:34;8.90;;;5.80;;
1224;SDS011;602;48.000;7.840;2023-09-12T05:46:03;6.83;;;5.60;;
1224;SDS011;602;48.000;7.840;2023-09-12T05:48:29;6.80;;;5.80;;
1224;SDS011;602;48.000;7.840;2023-09-12T05:50:56;6.13;;;5.53;;
1224;SDS011;602;48.000;7.840;2023-09-12T05:53:23;7.97;;;6.50;;
1224;SDS011;602;48.000;7.840;2023-09-12T05:55:50;8.20;;;7.27;;
1224;SDS011;602;48.000;7.840;2023-09-12T05:58:17;7.40;;;6.13;;
1224;SDS011;602;48.000;7.840;2023-09-12T06:00:44;6.90;;;6.20;;
1224;SDS011;602;48.000;7.840;2023-09-12T06:03:14;6.47;;;5.87;;
1224;SDS011;602;48.000;7.840;2023-09-12T06:05:41;5.87;;;5.33;;
1224;SDS011;602;48.000;7.840;2023-09-12T06:08:08;7.70;;;6.10;;
1224;SDS011;602;48.000;7.840;2023-09-12T06:10:34;6.33;;;5.73;;
1224;SDS011;602;48.000;7.840;2023-09-12T06:13:01;9.30;;;5.60;;
1224;SDS011;602;48.000;7.840;2023-09-12T06:15:28;7.50;;;6.33;;
1224;SDS011;602;48.000;7.840;2023-09-12T06:17:55;6.50;;;5.90;;
1224;SDS011;602;48.000;7.840;2023-09-12T06:20:24;6.57;;;5.97;;
1224;SDS011;602;48.000;7.840;2023-09-12T06:22:50;6.10;;;5.50;;
1224;SDS011;602;48.000;7.840;2023-09-12T06:25:17;6.07;;;5.47;;
1224;SDS011;602;48.000;7.840;2023-09-12T06:27:44;5.73;;;5.20;;
1224;SDS011;602;48.000;7.840;2023-09-12T06:30:11;5.97;;;5.37;;
1224;SDS011;602;48.000;7.840;2023-09-12T06:36:03;8.37;;;6.00;;
1224;SDS011;602;48.000;7.840;2023-09-12T06:38:30;5.73;;;5.27;;
1224;SDS011;602;48.000;7.840;2023-09-12T06:40:57;7.67;;;4.93;;
1224;SDS011;602;48.000;7.840;2023-09-12T06:43:23;5.60;;;5.10;;
1224;SDS011;602;48.000;7.840;2023-09-12T06:45:50;6.13;;;5.57;;
1224;SDS011;602;48.000;7.840;2023-09-12T06:48:17;6.57;;;5.93;;
1224;SDS011;602;48.000;7.840;2023-09-12T06:50:44;7.03;;;6.33;;
1224;SDS011;602;48.000;7.840;2023-09-12T06:53:12;6.90;;;6.20;;
1224;SDS011;602;48.000;7.840;2023-09-12T06:55:39;6.83;;;6.23;;
1224;SDS011;602;48.000;7.840;2023-09-12T06:58:06;6.83;;;6.23;;
1224;SDS011;602;48.000;7.840;2023-09-12T07:00:33;6.30;;;5.80;;
1224;SDS011;602;48.000;7.840;2023-09-12T07:03:00;6.87;;;6.23;;
1224;SDS011;602;48.000;7.840;2023-09-12T07:05:26;6.50;;;5.90;;
1224;SDS011;602;48.000;7.840;2023-09-12T07:07:53;5.33;;;4.83;;
1224;SDS011;602;48.000;7.840;2023-09-12T07:10:22;5.97;;;5.47;;
1224;SDS011;602;48.000;7.840;2023-09-12T07:12:48;6.93;;;6.23;;
1224;SDS011;602;48.000;7.840;2023-09-12T07:15:15;6.67;;;6.07;;
1224;SDS011;602;48.000;7.840;2023-09-12T07:17:42;6.13;;;5.63;;
1224;SDS011;602;48.000;7.840;2023-09-12T07:20:09;7.40;;;6.30;;
1224;SDS011;602;48.000;7.840;2023-09-12T07:22:37;6.33;;;5.73;;
1224;SDS011;602;48.000;7.840;2023-09-12T07:25:05;6.73;;;6.23;;
1224;SDS011;602;48.000;7.840;2023-09-12T07:27:35;6.73;;;6.13;;
1224;SDS011;602;48.000;7.840;2023-09-12T07:30:02;6.93;;;6.33;;
1224;SDS011;602;48.000;7.840;2023-09-12T07:32:30;6.17;;;5.57;;
1224;SDS011;602;48.000;7.840;2023-09-12T07:34:57;5.90;;;5.40;;
1224;SDS011;602;48.000;7.840;2023-09-12T07:37:23;6.00;;;5.40;;
1224;SDS011;602;48.000;7.840;2023-09-12T07:39:50;5.63;;;5.03;;
1224;SDS011;602;48.000;7.840;2023-09-12T07:42:20;7.10;;;6.50;;
1224;SDS011;602;48.000;7.840;2023-09-12T07:44:49;5.87;;;5.33;;
1224;SDS011;602;48.000;7.840;2023-09-12T07:47:16;5.90;;;5.30;;
1224;SDS011;602;48.000;7.840;2023-09-12T07:49:43;11.40;;;6.07;;
1224;SDS011;602;48.000;7.840;2023-09-12T07:52:12;6.07;;;5.50;;
1224;SDS011;602;48.000;7.840;2023-09-12T07:54:39;7.07;;;6.43;;
1224;SDS011;602;48.000;7.840;2023-09-12T07:57:06;5.60;;;5.20;;
1224;SDS011;602;48.000;7.840;2023-09-12T07:59:33;7.40;;;6.70;;
1224;SDS011;602;48.000;7.840;2023-09-12T08:02:02;8.73;;;6.57;;
1224;SDS011;602;48.000;7.840;2023-09-12T08:04:29;6.80;;;6.20;;
1224;SDS011;602;48.000;7.840;2023-09-12T08:06:56;7.00;;;6.40;;
1224;SDS011;602;48.000;7.840;2023-09-12T08:09:23;5.97;;;5.47;;
1224;SDS011;602;48.000;7.840;2023-09-12T08:11:49;6.20;;;5.70;;
1224;SDS011;602;48.000;7.840;2023-09-12T08:14:16;6.73;;;6.03;;
1224;SDS011;602;48.000;7.840;2023-09-12T08:16:45;6.40;;;5.80;;
1224;SDS011;602;48.000;7.840;2023-09-12T08:19:13;7.90;;;7.20;;
1224;SDS011;602;48.000;7.840;2023-09-12T08:21:40;6.33;;;5.73;;
1224;SDS011;602;48.000;7.840;2023-09-12T08:24:07;7.07;;;6.40;;
1224;SDS011;602;48.000;7.840;2023-09-12T08:26:34;6.43;;;5.93;;
1224;SDS011;602;48.000;7.840;2023-09-12T08:29:01;6.23;;;5.73;;
1224;SDS011;602;48.000;7.840;2023-09-12T08:31:27;7.60;;;6.90;;
1224;SDS011;602;48.000;7.840;2023-09-12T08:33:54;6.37;;;5.63;;
1224;SDS011;602;48.000;7.840;2023-09-12T08:36:23;7.20;;;6.60;;
1224;SDS011;602;48.000;7.840;2023-09-12T08:38:49;7.20;;;6.60;;
1224;SDS011;602;48.000;7.840;2023-09-12T08:41:16;5.23;;;4.83;;
1224;SDS011;602;48.000;7.840;2023-09-12T08:43:43;5.37;;;4.87;;
1224;SDS011;602;48.000;7.840;2023-09-12T08:46:11;5.20;;;4.80;;
1224;SDS011;602;48.000;7.840;2023-09-12T08:48:40;7.10;;;6.40;;
1224;SDS011;602;48.000;7.840;2023-09-12T08:51:07;7.17;;;5.90;;
1224;SDS011;602;48.000;7.840;2023-09-12T08:53:38;5.60;;;5.10;;
1224;SDS011;602;48.000;7.840;2023-09-12T08:56:05;6.00;;;5.50;;
1224;SDS011;602;48.000;7.840;2023-09-12T08:58:33;6.47;;;5.87;;
1224;SDS011;602;48.000;7.840;2023-09-12T09:01:01;5.93;;;5.33;;
1224;SDS011;602;48.000;7.840;2023-09-12T09:03:29;5.30;;;4.90;;
1224;SDS011;602;48.000;7.840;2023-09-12T09:05:57;5.73;;;5.23;;
1224;SDS011;602;48.000;7.840;2023-09-12T09:08:26;6.00;;;5.50;;
1224;SDS011;602;48.000;7.840;2023-09-12T09:10:56;4.87;;;4.47;;
1224;SDS011;602;48.000;7.840;2023-09-12T09:13:23;4.83;;;4.47;;
1224;SDS011;602;48.000;7.840;2023-09-12T09:15:55;5.50;;;5.10;;
1224;SDS011;602;48.000;7.840;2023-09-12T09:18:49;5.87;;;4.73;;
1224;SDS011;602;48.000;7.840;2023-09-12T09:21:17;5.70;;;5.20;;
1224;SDS011;602;48.000;7.840;2023-09-12T09:23:44;5.03;;;4.67;;
1224;SDS011;602;48.000;7.840;2023-09-12T09:26:13;5.77;;;5.30;;
1224;SDS011;602;48.000;7.840;2023-09-12T09:28:40;4.90;;;4.50;;
1224;SDS011;602;48.000;7.840;2023-09-12T09:31:09;5.67;;;5.07;;
1224;SDS011;602;48.000;7.840;2023-09-12T09:33:37;5.67;;;5.17;;
1224;SDS011;602;48.000;7.840;2023-09-12T09:36:06;4.93;;;4.63;;
1224;SDS011;602;48.000;7.840;2023-09-12T09:38:34;5.20;;;4.70;;
1224;SDS011;602;48.000;7.840;2023-09-12T09:41:03;4.73;;;4.33;;
1224;SDS011;602;48.000;7.840;2023-09-12T09:43:33;4.90;;;4.50;;
1224;SDS011;602;48.000;7.840;2023-09-12T09:46:00;4.53;;;4.23;;
1224;SDS011;602;48.000;7.840;2023-09-12T09:48:27;4.70;;;4.00;;
1224;SDS011;602;48.000;7.840;2023-09-12T09:50:59;5.10;;;4.60;;
1224;SDS011;602;48.000;7.840;2023-09-12T09:53:27;4.60;;;4.30;;
1224;SDS011;602;48.000;7.840;2023-09-12T09:56:07;4.47;;;4.10;;
1224;SDS011;602;48.000;7.840;2023-09-12T09:58:36;3.73;;;3.43;;
1224;SDS011;602;48.000;7.840;2023-09-12T10:01:08;5.10;;;4.70;;
1224;SDS011;602;48.000;7.840;2023-09-12T10:03:37;4.33;;;3.97;;
1224;SDS011;602;48.000;7.840;2023-09-12T10:06:04;4.60;;;4.20;;
1224;SDS011;602;48.000;7.840;2023-09-12T10:08:32;4.67;;;4.37;;
1224;SDS011;602;48.000;7.840;2023-09-12T10:11:00;5.50;;;5.00;;
1224;SDS011;602;48.000;7.840;2023-09-12T10:13:28;4.37;;;4.07;;
1224;SDS011;602;48.000;7.840;2023-09-12T10:15:59;4.30;;;4.00;;
1224;SDS011;602;48.000;7.840;2023-09-12T10:18:29;4.83;;;4.43;;
1224;SDS011;602;48.000;7.840;2023-09-12T10:21:07;6.23;;;4.87;;
1224;SDS011;602;48.000;7.840;2023-09-12T10:23:37;4.97;;;4.60;;
1224;SDS011;602;48.000;7.840;2023-09-12T10:26:09;4.87;;;4.53;;
1224;SDS011;602;48.000;7.840;2023-09-12T10:28:40;3.80;;;3.50;;
1224;SDS011;602;48.000;7.840;2023-09-12T10:31:11;4.57;;;4.27;;
1224;SDS011;602;48.000;7.840;2023-09-12T10:33:38;4.93;;;4.53;;
1224;SDS011;602;48.000;7.840;2023-09-12T10:36:06;4.63;;;4.33;;
1224;SDS011;602;48.000;7.840;2023-09-12T10:38:36;3.87;;;3.57;;
1224;SDS011;602;48.000;7.840;2023-09-12T10:41:08;4.53;;;4.23;;
1224;SDS011;602;48.000;7.840;2023-09-12T10:43:38;4.20;;;3.90;;
1224;SDS011;602;48.000;7.840;2023-09-12T10:46:06;4.97;;;4.67;;
1224;SDS011;602;48.000;7.840;2023-09-12T10:48:36;3.97;;;3.70;;
1224;SDS011;602;48.000;7.840;2023-09-12T10:51:05;4.30;;;3.90;;
1224;SDS011;602;48.000;7.840;2023-09-12T10:53:33;4.30;;;4.00;;
1224;SDS011;602;48.000;7.840;2023-09-12T10:56:14;4.50;;;4.20;;
1224;SDS011;602;48.000;7.840;2023-09-12T11:01:37;4.07;;;3.83;;
1224;SDS011;602;48.000;7.840;2023-09-12T11:06:59;4.30;;;4.00;;
1224;SDS011;602;48.000;7.840;2023-09-12T11:09:27;4.23;;;3.93;;
1224;SDS011;602;48.000;7.840;2023-09-12T11:11:55;4.47;;;4.07;;
1224;SDS011;602;48.000;7.840;2023-09-12T11:14:24;4.87;;;4.47;;
1224;SDS011;602;48.000;7.840;2023-09-12T11:19:49;4.53;;;4.23;;
1224;SDS011;602;48.000;7.840;2023-09-12T11:22:21;6.30;;;4.00;;
1224;SDS011;602;48.000;7.840;2023-09-12T11:24:49;4.83;;;4.43;;
1224;SDS011;602;48.000;7.840;2023-09-12T11:27:16;4.47;;;4.17;;
1224;SDS011;602;48.000;7.840;2023-09-12T11:29:43;4.30;;;4.00;;
1224;SDS011;602;48.000;7.840;2023-09-12T11:32:11;4.37;;;4.07;;
1224;SDS011;602;48.000;7.840;2023-09-12T11:34:53;4.73;;;4.43;;
1224;SDS011;602;48.000;7.840;2023-09-12T11:37:23;4.93;;;4.53;;
1224;SDS011;602;48.000;7.840;2023-09-12T11:39:51;5.40;;;5.00;;
1224;SDS011;602;48.000;7.840;2023-09-12T11:42:19;4.60;;;4.30;;
1224;SDS011;602;48.000;7.840;2023-09-12T11:44:48;5.00;;;4.53;;
1224;SDS011;602;48.000;7.840;2023-09-12T11:47:16;4.37;;;4.10;;
1224;SDS011;602;48.000;7.840;2023-09-12T11:49:43;6.20;;;4.90;;
1224;SDS011;602;48.000;7.840;2023-09-12T11:52:12;4.73;;;4.40;;
1224;SDS011;602;48.000;7.840;2023-09-12T11:54:39;4.67;;;4.37;;
1224;SDS011;602;48.000;7.840;2023-09-12T11:57:07;4.83;;;4.53;;
1224;SDS011;602;48.000;7.840;2023-09-12T11:59:36;4.87;;;4.57;;
1224;SDS011;602;48.000;7.840;2023-09-12T12:02:05;5.00;;;4.60;;
1224;SDS011;602;48.000;7.840;2023-09-12T12:04:33;4.60;;;4.30;;
1224;SDS011;602;48.000;7.840;2023-09-12T12:07:00;4.47;;;4.07;;
1224;SDS011;602;48.000;7.840;2023-09-12T12:09:30;4.63;;;4.23;;
1224;SDS011;602;48.000;7.840;2023-09-12T12:12:02;4.07;;;3.77;;
1224;SDS011;602;48.000;7.840;2023-09-12T12:14:33;5.00;;;4.63;;
1224;SDS011;602;48.000;7.840;2023-09-12T12:17:05;4.30;;;3.90;;
1224;SDS011;602;48.000;7.840;2023-09-12T12:19:32;4.70;;;4.40;;
1224;SDS011;602;48.000;7.840;2023-09-12T12:21:59;4.50;;;4.20;;
1224;SDS011;602;48.000;7.840;2023-09-12T12:24:26;4.60;;;4.30;;
1224;SDS011;602;48.000;7.840;2023-09-12T12:27:04;4.40;;;4.10;;
1224;SDS011;602;48.000;7.840;2023-09-12T12:29:32;3.90;;;3.60;;
1224;SDS011;602;48.000;7.840;2023-09-12T12:32:00;5.00;;;4.70;;
1224;SDS011;602;48.000;7.840;2023-09-12T12:34:27;4.60;;;4.17;;
1224;SDS011;602;48.000;7.840;2023-09-12T12:36:55;4.73;;;4.43;;
1224;SDS011;602;48.000;7.840;2023-09-12T12:39:22;4.83;;;4.53;;
1224;SDS011;602;48.000;7.840;2023-09-12T12:41:52;5.27;;;4.77;;
1224;SDS011;602;48.000;7.840;2023-09-12T12:44:20;4.57;;;4.17;;
1224;SDS011;602;48.000;7.840;2023-09-12T12:46:47;4.93;;;4.63;;
1224;SDS011;602;48.000;7.840;2023-09-12T12:49:15;5.40;;;4.87;;
1224;SDS011;602;48.000;7.840;2023-09-12T12:51:42;5.10;;;4.70;;
1224;SDS011;602;48.000;7.840;2023-09-12T12:54:09;4.80;;;4.40;;
1224;SDS011;602;48.000;7.840;2023-09-12T12:56:36;5.73;;;5.33;;
1224;SDS011;602;48.000;7.840;2023-09-12T12:59:06;5.13;;;4.60;;
1224;SDS011;602;48.000;7.840;2023-09-12T13:01:34;5.00;;;4.63;;
1224;SDS011;602;48.000;7.840;2023-09-12T13:04:01;5.27;;;4.77;;
1224;SDS011;602;48.000;7.840;2023-09-12T13:06:30;7.40;;;4.53;;
1224;SDS011;602;48.000;7.840;2023-09-12T13:09:00;4.40;;;4.10;;
1224;SDS011;602;48.000;7.840;2023-09-12T13:11:29;4.80;;;4.50;;
1224;SDS011;602;48.000;7.840;2023-09-12T13:13:59;4.97;;;4.60;;
1224;SDS011;602;48.000;7.840;2023-09-12T13:16:28;5.40;;;4.90;;
1224;SDS011;602;48.000;7.840;2023-09-12T13:18:55;5.67;;;5.00;;
1224;SDS011;602;48.000;7.840;2023-09-12T13:21:22;4.87;;;4.47;;
1224;SDS011;602;48.000;7.840;2023-09-12T13:23:49;4.33;;;4.03;;
1224;SDS011;602;48.000;7.840;2023-09-12T13:26:16;5.20;;;4.87;;
1224;SDS011;602;48.000;7.840;2023-09-12T13:28:43;5.30;;;4.90;;
1224;SDS011;602;48.000;7.840;2023-09-12T13:31:10;3.97;;;3.73;;
1224;SDS011;602;48.000;7.840;2023-09-12T13:33:38;5.10;;;4.70;;
1224;SDS011;602;48.000;7.840;2023-09-12T13:36:07;4.90;;;4.50;;
1224;SDS011;602;48.000;7.840;2023-09-12T13:38:34;5.00;;;4.70;;
1224;SDS011;602;48.000;7.840;2023-09-12T13:41:01;4.10;;;3.80;;
1224;SDS011;602;48.000;7.840;2023-09-12T13:43:28;4.70;;;4.40;;
1224;SDS011;602;48.000;7.840;2023-09-12T13:45:55;3.37;;;3.13;;
1224;SDS011;602;48.000;7.840;2023-09-12T13:48:22;2.90;;;2.70;;
1224;SDS011;602;48.000;7.840;2023-09-12T13:50:50;2.53;;;2.33;;
1224;SDS011;602;48.000;7.840;2023-09-12T13:53:17;3.13;;;2.93;;
1224;SDS011;602;48.000;7.840;2023-09-12T13:55:44;3.20;;;3.00;;
1224;SDS011;602;48.000;7.840;2023-09-12T13:58:11;3.03;;;2.83;;
1224;SDS011;602;48.000;7.840;2023-09-12T14:00:37;3.47;;;3.23;;
1224;SDS011;602;48.000;7.840;2023-09-12T14:03:04;2.73;;;2.53;;
1224;SDS011;602;48.000;7.840;2023-09-12T14:05:31;2.97;;;2.77;;
1224;SDS011;602;48.000;7.840;2023-09-12T14:08:00;2.43;;;2.33;;
1224;SDS011;602;48.000;7.840;2023-09-12T14:10:27;3.67;;;2.70;;
1224;SDS011;602;48.000;7.840;2023-09-12T14:12:54;5.20;;;2.90;;
1224;SDS011;602;48.000;7.840;2023-09-12T14:15:20;3.50;;;3.20;;
1224;SDS011;602;48.000;7.840;2023-09-12T14:17:48;3.10;;;2.90;;
1224;SDS011;602;48.000;7.840;2023-09-12T14:20:15;3.30;;;3.10;;
1224;SDS011;602;48.000;7.840;2023-09-12T14:22:42;3.73;;;3.47;;
1224;SDS011;602;48.000;7.840;2023-09-12T14:25:11;3.50;;;3.20;;
1224;SDS011;602;48.000;7.840;2023-09-12T14:27:40;3.30;;;3.03;;
1224;SDS011;602;48.000;7.840;2023-09-12T14:30:08;3.33;;;3.13;;
1224;SDS011;602;48.000;7.840;2023-09-12T14:32:37;3.70;;;3.40;;
1224;SDS011;602;48.000;7.840;2023-09-12T14:35:05;3.03;;;2.83;;
1224;SDS011;602;48.000;7.840;2023-09-12T14:37:32;3.40;;;3.10;;
1224;SDS011;602;48.000;7.840;2023-09-12T14:40:00;3.30;;;3.00;;
1224;SDS011;602;48.000;7.840;2023-09-12T14:42:31;3.20;;;3.00;;
1224;SDS011;602;48.000;7.840;2023-09-12T14:44:58;3.50;;;3.30;;
1224;SDS011;602;48.000;7.840;2023-09-12T14:47:24;3.53;;;3.23;;
1224;SDS011;602;48.000;7.840;2023-09-12T14:49:52;4.30;;;3.90;;
1224;SDS011;602;48.000;7.840;2023-09-12T14:52:19;3.63;;;3.40;;
1224;SDS011;602;48.000;7.840;2023-09-12T14:54:46;3.07;;;2.87;;
1224;SDS011;602;48.000;7.840;2023-09-12T14:57:13;3.80;;;3.50;;
1224;SDS011;602;48.000;7.840;2023-09-12T14:59:41;3.97;;;3.67;;
1224;SDS011;602;48.000;7.840;2023-09-12T15:02:08;3.43;;;3.23;;
1224;SDS011;602;48.000;7.840;2023-09-12T15:04:35;4.30;;;3.67;;
1224;SDS011;602;48.000;7.840;2023-09-12T15:07:02;4.70;;;4.40;;
1224;SDS011;602;48.000;7.840;2023-09-12T15:09:29;3.57;;;3.30;;
1224;SDS011;602;48.000;7.840;2023-09-12T15:11:56;3.50;;;3.23;;
1224;SDS011;602;48.000;7.840;2023-09-12T15:14:23;3.90;;;3.60;;
1224;SDS011;602;48.000;7.840;2023-09-12T15:16:51;4.30;;;3.90;;
1224;SDS011;602;48.000;7.840;2023-09-12T15:19:18;4.50;;;4.10;;
1224;SDS011;602;48.000;7.840;2023-09-12T15:21:45;3.53;;;3.23;;
1224;SDS011;602;48.000;7.840;2023-09-12T15:24:12;4.17;;;3.87;;
1224;SDS011;602;48.000;7.840;2023-09-12T15:26:39;4.00;;;3.70;;
1224;SDS011;602;48.000;7.840;2023-09-12T15:29:06;4.30;;;4.00;;
1224;SDS011;602;48.000;7.840;2023-09-12T15:31:33;4.50;;;4.20;;
1224;SDS011;602;48.000;7.840;2023-09-12T15:34:01;4.10;;;3.70;;
1224;SDS011;602;48.000;7.840;2023-09-12T15:36:29;4.50;;;4.10;;
1224;SDS011;602;48.000;7.840;2023-09-12T15:39:02;4.23;;;3.93;;
1224;SDS011;602;48.000;7.840;2023-09-12T15:41:29;3.67;;;3.43;;
1224;SDS011;602;48.000;7.840;2023-09-12T15:43:56;4.37;;;4.07;;
1224;SDS011;602;48.000;7.840;2023-09-12T15:46:23;4.40;;;4.00;;